Time;durP1;ratioP1;P1;durP2;ratioP2;P2;SDS_P1;SDS_P2;PMS_P1;PMS_P2;Temp;Humidity;BMP_temperature;BMP_pressure;BME280_temperature;BME280_humidity;BME280_pressure;Samples;Min_cycle;Max_cycle;Signal;HPM_P1;HPM_P2
2023/07/16 00:01:15;;;;;;;2.55;1.23;;;19.50;99.90;;;;;;4992085;28;20222;-82
2023/07/16 00:03:42;;;;;;;2.60;1.50;;;19.40;99.90;;;;;;4981886;28;20309;-81
2023/07/16 00:06:09;;;;;;;1.88;1.30;;;19.40;99.90;;;;;;4985284;28;20214;-82
2023/07/16 00:08:37;;;;;;;2.47;1.23;;;19.40;99.90;;;;;;4980689;28;20233;-81
2023/07/16 00:11:04;;;;;;;3.05;1.05;;;19.40;99.90;;;;;;4986582;28;20234;-81
2023/07/16 00:13:31;;;;;;;2.55;1.30;;;19.40;99.90;;;;;;4985588;28;20234;-82
2023/07/16 00:15:58;;;;;;;2.75;1.40;;;19.40;99.90;;;;;;4980553;28;20249;-83
2023/07/16 00:18:24;;;;;;;1.80;1.40;;;19.30;99.90;;;;;;4983408;28;20280;-82
2023/07/16 00:20:51;;;;;;;2.05;1.30;;;19.30;99.90;;;;;;4986342;28;20241;-81
2023/07/16 00:23:18;;;;;;;3.00;1.35;;;19.40;99.90;;;;;;4994483;28;20332;-81
2023/07/16 00:25:46;;;;;;;3.42;1.30;;;19.30;99.90;;;;;;4985833;28;20237;-82
2023/07/16 00:28:13;;;;;;;2.85;1.20;;;19.30;99.90;;;;;;4987092;28;20492;-82
2023/07/16 00:30:39;;;;;;;2.75;1.50;;;19.40;99.90;;;;;;4984309;28;20249;-82
2023/07/16 00:33:08;;;;;;;2.53;1.30;;;19.40;99.90;;;;;;4999636;28;20269;-81
2023/07/16 00:35:34;;;;;;;3.17;1.25;;;19.30;99.90;;;;;;4995214;28;20225;-84
2023/07/16 00:38:01;;;;;;;2.75;1.45;;;19.40;99.90;;;;;;5000274;28;20978;-82
2023/07/16 00:40:28;;;;;;;2.78;1.40;;;19.30;99.90;;;;;;4989460;28;21164;-83
2023/07/16 00:42:56;;;;;;;2.88;1.60;;;19.30;99.90;;;;;;5000492;28;20229;-83
2023/07/16 00:45:23;;;;;;;2.88;1.42;;;19.30;99.90;;;;;;4977855;28;20939;-82
2023/07/16 00:47:49;;;;;;;3.65;1.83;;;19.30;99.90;;;;;;4983481;28;20325;-82
2023/07/16 00:50:18;;;;;;;3.35;1.77;;;19.30;99.90;;;;;;5000433;28;21001;-81
2023/07/16 00:52:45;;;;;;;4.20;1.83;;;19.20;99.90;;;;;;4979136;28;20234;-81
2023/07/16 00:55:11;;;;;;;2.45;1.50;;;19.20;99.90;;;;;;4980618;28;20222;-81
2023/07/16 00:57:39;;;;;;;3.47;1.65;;;19.20;99.90;;;;;;5003835;28;20333;-81
2023/07/16 01:00:09;;;;;;;2.95;1.65;;;19.10;99.90;;;;;;4985718;28;20281;-82
2023/07/16 01:02:36;;;;;;;2.88;1.80;;;19.10;99.90;;;;;;4987113;28;20236;-83
2023/07/16 01:05:03;;;;;;;3.22;1.67;;;19.00;99.90;;;;;;4987844;28;21076;-84
2023/07/16 01:07:32;;;;;;;2.70;1.60;;;19.00;99.90;;;;;;4982226;28;20293;-83
2023/07/16 01:09:59;;;;;;;4.75;2.08;;;18.90;99.90;;;;;;4983143;28;20258;-83
2023/07/16 01:12:27;;;;;;;3.03;1.60;;;18.80;99.90;;;;;;5002909;28;20230;-85
2023/07/16 01:14:57;;;;;;;3.70;1.40;;;18.80;99.90;;;;;;4993274;28;20221;-84
2023/07/16 01:17:25;;;;;;;2.33;1.42;;;18.70;99.90;;;;;;4987480;28;20308;-83
2023/07/16 01:19:52;;;;;;;2.50;1.50;;;18.70;99.90;;;;;;4996311;28;20243;-83
2023/07/16 01:22:51;;;;;;;2.72;1.27;;;18.60;99.90;;;;;;4980506;28;20309;-83
2023/07/16 01:25:37;;;;;;;2.33;1.20;;;18.60;99.90;;;;;;4947411;28;20301;-84
2023/07/16 01:28:24;;;;;;;1.80;1.42;;;18.60;99.90;;;;;;4987937;28;20238;-83
2023/07/16 01:30:54;;;;;;;2.63;1.30;;;18.60;99.90;;;;;;4998939;28;20276;-84
2023/07/16 01:33:21;;;;;;;3.20;1.70;;;18.60;99.90;;;;;;4992137;28;20304;-84
2023/07/16 01:35:51;;;;;;;2.78;1.30;;;18.50;99.90;;;;;;5000929;28;20234;-83
2023/07/16 01:38:20;;;;;;;3.13;1.52;;;18.50;99.90;;;;;;4991906;28;20993;-82
2023/07/16 01:40:47;;;;;;;3.45;1.40;;;18.50;99.90;;;;;;4985054;28;20760;-84
2023/07/16 01:43:14;;;;;;;1.85;1.15;;;18.50;99.90;;;;;;4988258;28;20475;-83
2023/07/16 01:45:41;;;;;;;1.95;1.33;;;18.50;99.90;;;;;;4990792;28;20222;-82
2023/07/16 01:48:22;;;;;;;2.20;1.30;;;18.50;99.90;;;;;;4991798;28;20225;-82
2023/07/16 01:50:48;;;;;;;3.72;1.27;;;18.40;99.90;;;;;;4984439;28;20288;-82
2023/07/16 01:53:15;;;;;;;2.22;1.40;;;18.40;99.90;;;;;;4987276;28;20270;-82
2023/07/16 01:55:42;;;;;;;3.05;1.40;;;18.40;99.90;;;;;;4988349;28;20226;-84
2023/07/16 01:58:10;;;;;;;2.30;1.55;;;18.40;99.90;;;;;;5001438;28;20226;-83
2023/07/16 02:00:37;;;;;;;2.13;1.40;;;18.30;99.90;;;;;;4982765;28;20243;-84
2023/07/16 02:03:04;;;;;;;2.20;1.33;;;18.30;99.90;;;;;;4996616;28;20225;-82
2023/07/16 02:05:34;;;;;;;1.95;1.33;;;18.30;99.90;;;;;;5007902;28;20873;-84
2023/07/16 02:08:01;;;;;;;3.58;1.20;;;18.30;99.90;;;;;;4989873;28;20233;-83
2023/07/16 02:10:28;;;;;;;3.17;1.27;;;18.30;99.90;;;;;;4982368;28;20230;-83
2023/07/16 02:12:55;;;;;;;2.38;1.48;;;18.30;99.90;;;;;;5002005;28;20225;-83
2023/07/16 02:15:22;;;;;;;4.25;1.48;;;18.30;99.90;;;;;;4988843;28;20249;-83
2023/07/16 02:17:49;;;;;;;2.65;1.40;;;18.30;99.90;;;;;;4979330;28;20321;-83
2023/07/16 02:20:17;;;;;;;2.92;1.60;;;18.30;99.90;;;;;;5001043;28;20213;-84
2023/07/16 02:22:45;;;;;;;2.47;1.35;;;18.30;99.90;;;;;;4985728;28;20672;-84
2023/07/16 02:25:12;;;;;;;2.30;1.33;;;18.30;99.90;;;;;;4984531;28;20222;-83
2023/07/16 02:27:40;;;;;;;2.70;1.55;;;18.30;99.90;;;;;;4982538;28;20968;-84
2023/07/16 02:30:08;;;;;;;2.40;1.50;;;18.30;99.90;;;;;;4981950;28;20229;-84
2023/07/16 02:32:35;;;;;;;3.38;1.50;;;18.30;99.90;;;;;;4984332;28;20234;-84
2023/07/16 02:35:02;;;;;;;1.70;1.35;;;18.30;99.90;;;;;;4980738;28;20312;-84
2023/07/16 02:37:29;;;;;;;3.05;1.60;;;18.30;99.90;;;;;;4996770;28;20233;-83
2023/07/16 02:40:00;;;;;;;1.98;1.30;;;18.30;99.90;;;;;;5067427;23;20694;-79
2023/07/16 02:42:27;;;;;;;2.42;1.30;;;18.20;99.90;;;;;;5039475;28;20345;-79
2023/07/16 02:44:53;;;;;;;2.85;1.50;;;18.20;99.90;;;;;;5041603;28;20223;-79
2023/07/16 02:47:20;;;;;;;2.17;1.33;;;18.20;99.90;;;;;;5038858;28;20228;-79
2023/07/16 02:49:51;;;;;;;2.22;1.48;;;18.20;99.90;;;;;;5037491;28;20239;-79
2023/07/16 02:52:18;;;;;;;1.80;1.23;;;18.10;99.90;;;;;;5038456;28;20228;-79
2023/07/16 02:54:45;;;;;;;1.73;1.15;;;18.10;99.90;;;;;;5041124;28;20646;-79
2023/07/16 02:57:13;;;;;;;4.03;1.50;;;18.10;99.90;;;;;;5039181;28;20216;-79
2023/07/16 02:59:40;;;;;;;2.05;1.33;;;18.00;99.90;;;;;;5037570;28;20226;-78
2023/07/16 03:02:06;;;;;;;4.43;1.58;;;18.00;99.90;;;;;;5052957;28;20724;-78
2023/07/16 03:04:33;;;;;;;2.95;1.63;;;18.00;99.90;;;;;;5034941;28;20223;-78
2023/07/16 03:07:00;;;;;;;2.45;1.50;;;17.90;99.90;;;;;;5039744;28;20707;-80
2023/07/16 03:09:27;;;;;;;1.88;1.38;;;17.90;99.90;;;;;;5039174;28;20266;-79
2023/07/16 03:11:53;;;;;;;3.63;1.55;;;17.90;99.90;;;;;;5038518;28;20786;-79
2023/07/16 03:14:21;;;;;;;1.77;1.25;;;17.90;99.90;;;;;;5038513;28;20222;-79
2023/07/16 03:16:48;;;;;;;2.45;1.50;;;17.90;99.90;;;;;;5040419;28;20234;-78
2023/07/16 03:19:15;;;;;;;2.30;1.45;;;17.90;99.90;;;;;;5041803;28;20227;-79
2023/07/16 03:21:42;;;;;;;1.58;1.30;;;17.90;99.90;;;;;;5035080;28;20831;-78
2023/07/16 03:24:11;;;;;;;3.72;1.60;;;17.80;99.90;;;;;;5029946;28;20224;-78
2023/07/16 03:26:38;;;;;;;2.65;1.30;;;17.90;99.90;;;;;;5032732;28;21180;-78
2023/07/16 03:29:05;;;;;;;3.25;1.60;;;17.80;99.90;;;;;;5045815;28;20239;-79
2023/07/16 03:31:33;;;;;;;3.25;1.33;;;17.80;99.90;;;;;;5038283;28;20342;-79
2023/07/16 03:34:01;;;;;;;3.85;1.70;;;17.80;99.90;;;;;;5036890;28;20270;-79
2023/07/16 03:36:30;;;;;;;4.07;1.70;;;17.80;99.90;;;;;;5037630;28;20948;-79
2023/07/16 03:38:57;;;;;;;3.00;1.50;;;17.80;99.90;;;;;;5026873;28;20356;-79
2023/07/16 03:41:24;;;;;;;3.28;1.70;;;17.80;99.90;;;;;;5034666;28;20275;-79
2023/07/16 03:43:52;;;;;;;3.80;1.60;;;17.80;99.90;;;;;;5034131;28;20305;-78
2023/07/16 03:46:21;;;;;;;3.53;1.40;;;17.80;99.90;;;;;;5040769;28;20235;-79
2023/07/16 03:48:50;;;;;;;2.70;1.65;;;17.80;99.90;;;;;;5039271;28;20224;-78
2023/07/16 03:51:17;;;;;;;2.95;1.67;;;17.80;99.90;;;;;;5039655;28;20220;-78
2023/07/16 03:53:44;;;;;;;2.75;1.30;;;17.80;99.90;;;;;;5039317;28;20223;-78
2023/07/16 03:56:11;;;;;;;3.33;1.48;;;17.70;99.90;;;;;;5038845;28;20221;-78
2023/07/16 03:58:38;;;;;;;3.05;1.75;;;17.80;99.90;;;;;;5037467;28;20220;-79
2023/07/16 04:01:06;;;;;;;3.78;1.60;;;17.70;99.90;;;;;;5035535;28;20217;-78
2023/07/16 04:03:33;;;;;;;3.45;1.67;;;17.70;99.90;;;;;;5038035;28;20237;-78
2023/07/16 04:06:04;;;;;;;2.33;1.35;;;17.70;99.90;;;;;;5034206;28;20323;-78
2023/07/16 04:08:31;;;;;;;4.18;1.60;;;17.60;99.90;;;;;;5041022;28;20292;-78
2023/07/16 04:10:58;;;;;;;2.40;1.40;;;17.60;99.90;;;;;;5038868;28;20303;-79
2023/07/16 04:13:25;;;;;;;2.45;1.48;;;17.60;99.90;;;;;;5037408;28;20353;-78
2023/07/16 04:15:53;;;;;;;2.38;1.55;;;17.60;99.90;;;;;;5033311;28;20282;-78
2023/07/16 04:18:20;;;;;;;3.13;1.83;;;17.60;99.90;;;;;;5035989;28;20319;-79
2023/07/16 04:20:47;;;;;;;3.85;1.73;;;17.60;99.90;;;;;;5033179;28;20766;-78
2023/07/16 04:23:15;;;;;;;2.42;1.70;;;17.60;99.90;;;;;;5038944;28;20226;-78
2023/07/16 04:25:42;;;;;;;4.55;1.65;;;17.60;99.90;;;;;;5038296;28;20750;-78
2023/07/16 04:28:10;;;;;;;2.40;1.70;;;17.60;99.90;;;;;;5033974;28;20221;-78
2023/07/16 04:30:38;;;;;;;3.15;1.70;;;17.60;99.90;;;;;;5037169;28;20217;-78
2023/07/16 04:33:04;;;;;;;3.35;1.60;;;17.60;99.90;;;;;;5041081;28;20819;-79
2023/07/16 04:35:31;;;;;;;2.80;1.50;;;17.60;99.90;;;;;;5041878;28;20226;-79
2023/07/16 04:37:58;;;;;;;2.05;1.70;;;17.60;99.90;;;;;;5040670;28;20231;-80
2023/07/16 04:40:26;;;;;;;4.18;1.50;;;17.60;99.90;;;;;;5039959;28;20307;-80
2023/07/16 04:42:53;;;;;;;3.53;1.70;;;17.60;99.90;;;;;;5046814;28;20215;-80
2023/07/16 04:45:20;;;;;;;2.95;2.08;;;17.50;99.90;;;;;;5044803;28;20236;-80
2023/07/16 04:47:46;;;;;;;2.08;1.83;;;17.60;99.90;;;;;;5043743;28;20243;-80
2023/07/16 04:50:13;;;;;;;3.87;1.70;;;17.50;99.90;;;;;;5039729;28;20239;-79
2023/07/16 04:52:40;;;;;;;3.97;1.75;;;17.50;99.90;;;;;;5044037;28;20326;-79
2023/07/16 04:55:07;;;;;;;2.70;1.48;;;17.50;99.90;;;;;;5041850;28;20220;-78
2023/07/16 04:57:35;;;;;;;2.63;1.60;;;17.50;99.90;;;;;;5048926;28;20224;-80
2023/07/16 05:00:03;;;;;;;2.42;1.60;;;17.40;99.90;;;;;;5039860;28;20809;-79
2023/07/16 05:02:30;;;;;;;3.28;1.80;;;17.50;99.90;;;;;;5037889;28;20602;-79
2023/07/16 05:04:56;;;;;;;2.72;1.55;;;17.50;99.90;;;;;;5042368;28;20259;-79
2023/07/16 05:07:23;;;;;;;3.30;1.65;;;17.50;99.90;;;;;;5043846;28;20224;-77
2023/07/16 05:09:49;;;;;;;4.55;1.92;;;17.50;99.90;;;;;;5041571;28;20228;-77
2023/07/16 05:12:16;;;;;;;3.10;1.60;;;17.50;99.90;;;;;;5044091;28;20238;-78
2023/07/16 05:14:49;;;;;;;2.97;1.97;;;17.50;99.90;;;;;;5044309;28;20216;-78
2023/07/16 05:17:15;;;;;;;3.53;1.63;;;17.60;99.90;;;;;;5042229;28;20217;-78
2023/07/16 05:19:43;;;;;;;4.43;2.10;;;17.70;99.90;;;;;;5044009;28;20618;-79
2023/07/16 05:22:09;;;;;;;3.57;1.73;;;17.80;99.90;;;;;;5039673;28;20220;-79
2023/07/16 05:24:36;;;;;;;3.27;1.60;;;17.80;99.90;;;;;;5036733;28;20228;-78
2023/07/16 05:27:03;;;;;;;2.20;1.80;;;17.90;99.90;;;;;;5039242;28;20380;-79
2023/07/16 05:29:30;;;;;;;4.93;1.70;;;17.90;99.90;;;;;;5036144;28;20231;-79
2023/07/16 05:31:58;;;;;;;3.00;1.70;;;17.90;99.90;;;;;;5036338;28;20232;-79
2023/07/16 05:34:25;;;;;;;3.43;2.03;;;17.90;99.90;;;;;;5039176;28;20842;-79
2023/07/16 05:36:54;;;;;;;5.82;2.15;;;18.00;99.90;;;;;;5039923;28;20220;-79
2023/07/16 05:39:21;;;;;;;3.10;1.67;;;18.00;99.90;;;;;;5033220;28;20231;-79
2023/07/16 05:41:48;;;;;;;5.43;2.00;;;18.00;99.90;;;;;;5041964;28;20765;-79
2023/07/16 05:44:15;;;;;;;3.42;1.67;;;18.00;99.90;;;;;;5039562;28;20229;-78
2023/07/16 05:46:41;;;;;;;6.22;2.03;;;18.00;99.90;;;;;;5040815;28;20314;-79
2023/07/16 05:49:10;;;;;;;3.70;1.75;;;18.00;99.90;;;;;;5037715;28;20268;-79
2023/07/16 05:51:36;;;;;;;3.85;1.67;;;18.10;99.90;;;;;;5043134;28;20306;-79
2023/07/16 05:54:03;;;;;;;2.67;1.40;;;18.10;99.90;;;;;;5038098;28;20323;-79
2023/07/16 05:56:30;;;;;;;3.40;1.90;;;18.20;99.90;;;;;;5037866;28;20303;-79
2023/07/16 05:58:57;;;;;;;4.90;1.90;;;18.20;99.90;;;;;;5038326;28;20301;-78
2023/07/16 06:01:23;;;;;;;3.63;1.70;;;18.20;99.90;;;;;;5029774;28;20227;-79
2023/07/16 06:03:50;;;;;;;3.38;1.85;;;18.20;99.90;;;;;;5031709;28;20219;-79
2023/07/16 06:06:18;;;;;;;3.42;1.67;;;18.30;99.90;;;;;;5042465;28;20216;-78
2023/07/16 06:08:45;;;;;;;2.63;1.77;;;18.30;99.90;;;;;;5039755;28;20224;-79
2023/07/16 06:11:12;;;;;;;3.67;1.52;;;18.40;99.90;;;;;;5042303;28;20235;-79
2023/07/16 06:13:38;;;;;;;3.00;1.85;;;18.40;99.90;;;;;;5060868;28;20224;-79
2023/07/16 06:16:06;;;;;;;4.57;1.80;;;18.50;99.90;;;;;;5040420;28;20228;-79
2023/07/16 06:18:32;;;;;;;3.67;1.50;;;18.50;99.90;;;;;;5042775;28;20622;-79
2023/07/16 06:20:59;;;;;;;4.68;2.13;;;18.60;99.90;;;;;;5039566;28;20250;-79
2023/07/16 06:23:27;;;;;;;2.65;1.77;;;18.70;99.90;;;;;;5039684;28;20243;-79
2023/07/16 06:25:55;;;;;;;7.50;2.10;;;18.80;99.90;;;;;;5039613;28;20230;-79
2023/07/16 06:28:22;;;;;;;4.30;1.90;;;18.80;99.90;;;;;;5041946;28;20220;-78
2023/07/16 06:30:51;;;;;;;5.90;1.70;;;18.90;99.90;;;;;;5044617;28;20235;-78
2023/07/16 06:33:18;;;;;;;4.78;2.22;;;19.10;99.90;;;;;;5042178;28;20323;-79
2023/07/16 06:35:46;;;;;;;7.28;2.17;;;19.20;99.90;;;;;;5042208;28;20220;-79
2023/07/16 06:38:13;;;;;;;6.30;2.20;;;19.30;99.90;;;;;;5047460;28;20254;-81
2023/07/16 06:40:46;;;;;;;4.07;1.92;;;19.30;99.90;;;;;;5047506;28;20228;-80
2023/07/16 06:43:13;;;;;;;5.40;2.25;;;19.40;99.90;;;;;;5045152;28;20220;-79
2023/07/16 06:45:39;;;;;;;3.53;2.20;;;19.60;99.90;;;;;;5049903;28;20251;-80
2023/07/16 06:48:06;;;;;;;4.63;1.60;;;19.70;99.90;;;;;;5040396;28;20224;-80
2023/07/16 06:50:33;;;;;;;5.30;1.85;;;19.90;99.90;;;;;;5041847;28;20307;-80
2023/07/16 06:53:00;;;;;;;9.95;2.72;;;20.10;99.90;;;;;;5035089;28;20224;-81
2023/07/16 06:55:26;;;;;;;5.85;2.15;;;20.30;99.90;;;;;;5044251;28;20220;-81
2023/07/16 06:57:54;;;;;;;3.38;1.95;;;20.50;99.90;;;;;;5044326;28;20274;-80
2023/07/16 07:00:21;;;;;;;5.25;2.05;;;20.70;99.90;;;;;;5034999;28;20558;-79
2023/07/16 07:02:48;;;;;;;3.97;2.17;;;21.00;99.90;;;;;;5039962;28;20620;-79
2023/07/16 07:05:15;;;;;;;5.63;2.42;;;21.20;99.90;;;;;;5040407;28;20239;-79
2023/07/16 07:07:42;;;;;;;5.43;2.20;;;21.40;99.90;;;;;;5040473;28;20244;-79
2023/07/16 07:10:09;;;;;;;6.25;2.67;;;21.50;99.90;;;;;;5037420;28;20854;-80
2023/07/16 07:12:37;;;;;;;6.75;2.40;;;21.70;99.90;;;;;;5030439;28;20228;-79
2023/07/16 07:15:07;;;;;;;6.25;2.35;;;22.10;99.90;;;;;;5038529;28;20235;-80
2023/07/16 07:17:33;;;;;;;7.25;2.33;;;22.40;99.60;;;;;;5039320;28;20702;-79
2023/07/16 07:20:00;;;;;;;6.20;2.30;;;22.90;99.40;;;;;;5037096;28;20234;-79
2023/07/16 07:22:27;;;;;;;3.67;2.00;;;23.30;98.30;;;;;;5036910;28;20708;-79
2023/07/16 07:24:54;;;;;;;7.18;2.20;;;23.70;98.20;;;;;;5039519;28;20252;-81
2023/07/16 07:27:20;;;;;;;4.57;2.28;;;24.10;97.40;;;;;;5039915;28;20225;-80
2023/07/16 07:29:51;;;;;;;6.32;2.78;;;24.50;96.50;;;;;;5034167;28;20232;-80
2023/07/16 07:32:19;;;;;;;3.63;2.17;;;24.90;96.20;;;;;;5039958;28;20231;-81
2023/07/16 07:34:46;;;;;;;5.20;2.22;;;25.20;95.70;;;;;;5040845;28;20224;-81
2023/07/16 07:37:13;;;;;;;4.45;2.30;;;25.60;95.40;;;;;;5039421;28;20224;-80
2023/07/16 07:39:40;;;;;;;4.15;2.33;;;26.00;95.00;;;;;;5033877;28;20230;-78
2023/07/16 07:42:07;;;;;;;5.90;2.63;;;26.10;92.30;;;;;;5035844;28;20228;-79
2023/07/16 07:44:34;;;;;;;4.47;2.28;;;26.30;92.60;;;;;;5052977;28;20279;-79
2023/07/16 07:47:00;;;;;;;3.58;2.00;;;26.40;92.50;;;;;;5030406;28;20212;-79
2023/07/16 07:49:28;;;;;;;4.10;2.00;;;26.40;92.10;;;;;;5038619;28;20239;-79
2023/07/16 07:51:55;;;;;;;5.32;2.22;;;26.30;92.00;;;;;;5037822;28;20220;-79
2023/07/16 07:54:21;;;;;;;4.72;2.28;;;26.20;90.60;;;;;;5035110;28;20249;-79
2023/07/16 07:56:48;;;;;;;4.57;2.30;;;26.10;91.10;;;;;;5035884;28;20223;-79
2023/07/16 07:59:15;;;;;;;3.28;1.80;;;26.10;91.80;;;;;;5038692;28;21089;-79
2023/07/16 08:01:41;;;;;;;4.88;1.92;;;26.20;90.20;;;;;;5054659;28;20743;-79
2023/07/16 08:04:08;;;;;;;4.60;2.00;;;26.30;91.30;;;;;;5037962;28;20328;-78
2023/07/16 08:06:36;;;;;;;4.95;2.45;;;26.40;90.80;;;;;;5036298;28;20744;-80
2023/07/16 08:09:03;;;;;;;3.35;2.08;;;26.40;90.50;;;;;;5036818;28;20231;-79
2023/07/16 08:11:29;;;;;;;2.88;1.60;;;26.50;91.00;;;;;;5024887;28;20232;-80
2023/07/16 08:13:56;;;;;;;4.72;1.98;;;26.60;90.70;;;;;;5040330;28;20234;-78
2023/07/16 08:16:23;;;;;;;4.05;2.17;;;26.70;90.60;;;;;;5039579;28;20706;-80
2023/07/16 08:18:50;;;;;;;5.53;1.80;;;26.60;89.00;;;;;;5036943;28;20729;-79
2023/07/16 08:21:19;;;;;;;4.93;1.70;;;26.50;89.60;;;;;;5035943;28;20216;-80
2023/07/16 08:23:48;;;;;;;7.75;2.33;;;26.60;90.10;;;;;;5055954;28;20311;-80
2023/07/16 08:26:14;;;;;;;6.50;2.05;;;26.60;88.70;;;;;;5042038;28;20252;-79
2023/07/16 08:28:41;;;;;;;4.80;2.17;;;26.70;88.40;;;;;;5045578;28;20311;-80
2023/07/16 08:31:08;;;;;;;3.40;1.60;;;26.80;85.70;;;;;;5038458;28;20944;-80
2023/07/16 08:33:34;;;;;;;3.78;1.88;;;26.90;87.70;;;;;;5041049;28;20235;-80
2023/07/16 08:36:01;;;;;;;2.63;1.70;;;26.90;86.50;;;;;;5039111;28;20714;-79
2023/07/16 08:38:28;;;;;;;4.63;2.22;;;27.10;87.00;;;;;;5041253;28;20228;-80
2023/07/16 08:40:56;;;;;;;5.53;1.92;;;27.20;85.10;;;;;;5055785;23;20247;-82
2023/07/16 08:43:23;;;;;;;5.03;2.13;;;27.30;81.50;;;;;;5035572;28;20512;-84
2023/07/16 08:45:50;;;;;;;5.22;2.17;;;27.40;81.00;;;;;;5026874;28;20235;-84
2023/07/16 08:48:18;;;;;;;5.78;2.10;;;27.40;81.30;;;;;;5026224;28;20228;-84
2023/07/16 08:50:47;;;;;;;4.78;2.13;;;27.20;80.60;;;;;;5022736;28;20728;-83
2023/07/16 08:53:16;;;;;;;4.57;2.20;;;27.00;79.90;;;;;;5006614;28;20224;-82
2023/07/16 08:55:44;;;;;;;7.13;2.22;;;26.70;79.00;;;;;;4991888;28;20221;-82
2023/07/16 08:58:14;;;;;;;5.22;2.22;;;26.30;79.20;;;;;;5004792;28;20709;-82
2023/07/16 09:00:41;;;;;;;4.60;2.10;;;25.80;80.40;;;;;;5008117;28;20249;-81
2023/07/16 09:03:08;;;;;;;2.67;1.90;;;25.50;82.90;;;;;;4997972;28;20229;-81
2023/07/16 09:05:36;;;;;;;6.15;2.00;;;25.30;85.40;;;;;;5005444;28;20245;-81
2023/07/16 09:08:03;;;;;;;5.40;2.10;;;25.40;86.40;;;;;;5026963;28;20218;-81
2023/07/16 09:10:30;;;;;;;4.05;1.90;;;25.60;86.30;;;;;;5009708;28;20293;-81
2023/07/16 09:12:59;;;;;;;4.75;2.28;;;25.80;84.00;;;;;;5006733;28;20225;-81
2023/07/16 09:15:30;;;;;;;4.50;1.95;;;25.70;81.60;;;;;;5008438;28;20301;-81
2023/07/16 09:17:56;;;;;;;4.43;2.30;;;25.70;80.90;;;;;;5002697;28;20226;-81
2023/07/16 09:20:24;;;;;;;2.92;2.40;;;25.80;79.40;;;;;;5019651;28;24221;-82
2023/07/16 09:22:54;;;;;;;3.00;2.20;;;25.80;80.20;;;;;;5010502;28;20275;-82
2023/07/16 09:25:20;;;;;;;5.22;2.72;;;25.80;78.40;;;;;;5008173;28;20786;-82
2023/07/16 09:27:49;;;;;;;4.70;2.78;;;25.80;77.60;;;;;;5002504;28;20235;-82
2023/07/16 09:30:17;;;;;;;4.40;2.53;;;25.70;76.60;;;;;;5034467;28;20264;-83
2023/07/16 09:32:48;;;;;;;4.15;2.70;;;25.80;76.60;;;;;;5014136;28;20206;-85
2023/07/16 09:35:17;;;;;;;4.80;3.10;;;25.90;76.60;;;;;;5015925;28;20217;-83
2023/07/16 09:37:45;;;;;;;5.70;3.00;;;26.10;77.90;;;;;;5010661;28;20253;-83
2023/07/16 09:40:12;;;;;;;4.32;2.60;;;26.40;77.70;;;;;;5005709;28;20222;-83
2023/07/16 09:42:40;;;;;;;5.72;2.70;;;26.70;76.80;;;;;;5008892;28;20231;-82
2023/07/16 09:45:09;;;;;;;4.95;2.80;;;26.90;75.90;;;;;;5002927;28;20213;-83
2023/07/16 09:47:36;;;;;;;5.50;3.05;;;27.10;75.80;;;;;;5014500;28;20248;-84
2023/07/16 09:50:05;;;;;;;5.40;3.05;;;27.20;75.70;;;;;;5031244;28;20241;-84
2023/07/16 09:52:33;;;;;;;6.00;3.03;;;27.20;75.60;;;;;;5014434;28;20276;-84
2023/07/16 09:55:10;;;;;;;5.68;2.60;;;27.40;76.60;;;;;;5006441;28;20225;-85
2023/07/16 09:57:39;;;;;;;3.95;2.80;;;27.50;74.60;;;;;;5009537;28;20232;-81
2023/07/16 10:00:11;;;;;;;4.13;2.63;;;27.60;72.50;;;;;;5008441;28;20249;-81
2023/07/16 10:02:40;;;;;;;3.88;2.40;;;27.60;70.80;;;;;;5004122;28;20230;-82
2023/07/16 10:05:15;;;;;;;5.65;3.10;;;27.60;71.50;;;;;;5004998;28;20225;-81
2023/07/16 10:07:42;;;;;;;6.03;2.97;;;27.40;70.30;;;;;;5010216;28;20221;-81
2023/07/16 10:10:12;;;;;;;7.13;2.85;;;27.30;70.90;;;;;;5014367;28;20217;-83
2023/07/16 10:12:39;;;;;;;4.93;2.70;;;27.30;70.00;;;;;;5015837;28;20240;-81
2023/07/16 10:15:07;;;;;;;5.18;2.67;;;27.30;70.00;;;;;;5014407;28;20222;-80
2023/07/16 10:17:34;;;;;;;6.15;3.55;;;27.40;68.80;;;;;;5025873;28;20317;-79
2023/07/16 10:20:04;;;;;;;4.85;2.70;;;27.60;69.70;;;;;;5010429;28;20233;-81
2023/07/16 10:22:37;;;;;;;4.63;2.78;;;27.50;67.20;;;;;;5010693;28;20221;-79
2023/07/16 10:25:06;;;;;;;4.03;2.85;;;27.50;67.90;;;;;;5010210;28;20222;-81
2023/07/16 10:27:35;;;;;;;8.60;3.22;;;27.30;67.00;;;;;;5011250;28;20244;-80
2023/07/16 10:30:03;;;;;;;5.45;2.65;;;27.10;67.30;;;;;;5011767;28;20299;-80
2023/07/16 10:32:31;;;;;;;5.30;3.08;;;26.70;67.50;;;;;;5009831;28;20308;-80
2023/07/16 10:34:58;;;;;;;7.35;2.97;;;26.50;68.70;;;;;;5010094;28;20259;-80
2023/07/16 10:37:26;;;;;;;7.03;2.72;;;26.30;68.90;;;;;;5005138;28;20852;-82
2023/07/16 10:39:55;;;;;;;5.10;2.92;;;26.00;69.70;;;;;;5011347;28;20305;-81
2023/07/16 10:42:23;;;;;;;4.93;2.97;;;25.70;70.00;;;;;;5026865;28;20229;-81
2023/07/16 10:44:52;;;;;;;6.32;2.95;;;25.60;71.80;;;;;;5012216;28;20223;-80
2023/07/16 10:47:24;;;;;;;4.60;2.85;;;25.40;71.80;;;;;;5010831;28;20229;-82
2023/07/16 10:49:53;;;;;;;4.20;2.80;;;25.40;72.60;;;;;;5010247;28;20300;-80
2023/07/16 10:52:21;;;;;;;4.60;3.05;;;25.40;71.50;;;;;;5010156;28;20257;-81
2023/07/16 10:54:48;;;;;;;5.30;3.10;;;25.40;71.00;;;;;;5013517;28;20233;-81
2023/07/16 10:57:19;;;;;;;5.95;3.22;;;25.30;71.90;;;;;;5006518;28;20739;-80
2023/07/16 10:59:48;;;;;;;5.85;3.28;;;25.30;72.00;;;;;;5010955;28;20672;-81
2023/07/16 11:02:17;;;;;;;5.80;2.97;;;25.30;72.40;;;;;;5005477;28;20240;-82
2023/07/16 11:04:44;;;;;;;4.60;2.78;;;25.20;72.30;;;;;;5009455;28;20246;-81
2023/07/16 11:07:12;;;;;;;5.00;3.10;;;25.20;72.20;;;;;;5022991;28;21109;-81
2023/07/16 11:09:43;;;;;;;5.85;3.17;;;25.20;72.30;;;;;;5007319;28;20229;-81
2023/07/16 11:12:11;;;;;;;4.43;3.22;;;25.30;72.50;;;;;;5009541;28;20225;-81
2023/07/16 11:14:40;;;;;;;4.72;2.90;;;25.40;72.20;;;;;;5011049;28;20248;-81
2023/07/16 11:17:09;;;;;;;4.90;3.05;;;25.40;71.60;;;;;;5007156;28;20257;-81
2023/07/16 11:19:36;;;;;;;4.68;2.90;;;25.50;71.60;;;;;;5010299;28;20245;-81
2023/07/16 11:22:05;;;;;;;8.40;3.38;;;25.60;71.60;;;;;;5010696;28;20222;-81
2023/07/16 11:24:38;;;;;;;4.78;2.50;;;25.80;71.50;;;;;;5024022;28;20837;-81
2023/07/16 11:27:06;;;;;;;4.72;3.13;;;26.00;71.50;;;;;;5002773;28;20264;-81
2023/07/16 11:29:36;;;;;;;4.70;2.63;;;26.20;70.50;;;;;;5007656;28;20227;-83
2023/07/16 11:32:06;;;;;;;5.30;2.80;;;26.30;70.10;;;;;;5010756;28;20289;-83
2023/07/16 11:34:32;;;;;;;3.92;2.92;;;26.50;70.00;;;;;;5005607;28;20350;-82
2023/07/16 11:37:09;;;;;;;5.65;2.85;;;26.60;69.10;;;;;;5005206;28;20228;-82
2023/07/16 11:39:36;;;;;;;5.80;2.75;;;26.50;68.80;;;;;;5002298;28;20232;-82
2023/07/16 11:42:04;;;;;;;5.35;2.88;;;26.60;71.20;;;;;;5006407;28;20235;-81
2023/07/16 11:44:34;;;;;;;3.85;2.60;;;26.80;70.00;;;;;;5002774;28;20283;-82
2023/07/16 11:47:01;;;;;;;4.68;3.10;;;26.90;68.20;;;;;;5002727;28;20326;-82
2023/07/16 11:49:29;;;;;;;6.13;3.15;;;26.90;68.50;;;;;;5001906;28;20229;-82
2023/07/16 11:51:57;;;;;;;5.43;2.45;;;26.80;67.40;;;;;;5004609;28;20233;-82
2023/07/16 11:54:24;;;;;;;6.40;3.20;;;26.90;67.80;;;;;;5001929;28;20229;-82
2023/07/16 11:56:50;;;;;;;4.15;2.70;;;26.90;69.60;;;;;;5001752;28;20316;-81
2023/07/16 11:59:19;;;;;;;5.53;2.60;;;26.90;67.90;;;;;;5004675;28;20611;-82
2023/07/16 12:01:48;;;;;;;5.30;2.97;;;26.90;67.40;;;;;;5004341;28;20229;-82
2023/07/16 12:04:14;;;;;;;4.22;2.92;;;26.80;67.60;;;;;;5001301;28;20229;-81
2023/07/16 12:06:42;;;;;;;5.15;2.47;;;26.80;67.70;;;;;;5007980;28;20225;-81
2023/07/16 12:09:09;;;;;;;6.35;2.72;;;26.80;67.40;;;;;;5009540;28;20241;-81
2023/07/16 12:11:37;;;;;;;4.25;3.10;;;26.70;67.90;;;;;;5009445;28;20240;-81
2023/07/16 12:14:04;;;;;;;4.75;2.90;;;26.70;68.40;;;;;;5008036;28;20226;-81
2023/07/16 12:16:31;;;;;;;3.65;2.28;;;26.60;67.70;;;;;;5009342;28;20227;-81
2023/07/16 12:18:58;;;;;;;6.68;3.05;;;26.70;68.90;;;;;;5009467;28;20230;-81
2023/07/16 12:21:24;;;;;;;3.72;2.67;;;26.70;67.10;;;;;;5008175;28;20235;-81
2023/07/16 12:23:52;;;;;;;7.47;2.80;;;26.70;67.20;;;;;;5011575;28;20221;-81
2023/07/16 12:26:19;;;;;;;4.88;2.65;;;26.50;66.60;;;;;;5008674;28;20226;-81
2023/07/16 12:28:46;;;;;;;4.93;2.65;;;26.40;66.50;;;;;;5026710;28;20231;-81
2023/07/16 12:31:12;;;;;;;5.00;2.35;;;26.30;67.20;;;;;;5006264;28;20233;-81
2023/07/16 12:33:39;;;;;;;7.00;3.05;;;26.20;69.00;;;;;;5006481;28;20217;-81
2023/07/16 12:36:06;;;;;;;3.80;2.33;;;26.20;68.00;;;;;;5018873;28;20217;-81
2023/07/16 12:38:32;;;;;;;3.58;2.50;;;26.30;68.10;;;;;;5022546;28;20340;-81
2023/07/16 12:41:01;;;;;;;4.82;2.53;;;26.40;67.90;;;;;;5007382;28;20237;-81
2023/07/16 12:43:27;;;;;;;4.85;2.00;;;26.40;67.20;;;;;;5002230;28;20256;-80
2023/07/16 12:45:54;;;;;;;3.72;2.20;;;26.50;67.60;;;;;;5019101;28;20332;-79
2023/07/16 12:48:21;;;;;;;6.45;2.55;;;26.50;66.60;;;;;;5008328;28;20233;-80
2023/07/16 12:50:47;;;;;;;4.50;2.50;;;26.40;67.10;;;;;;5010792;28;20227;-81